Time;durP1;ratioP1;P1;durP2;ratioP2;P2;SDS_P1;SDS_P2;PMS_P1;PMS_P2;Temp;Humidity;BMP_temperature;BMP_pressure;BME280_temperature;BME280_humidity;BME280_pressure;Samples;Min_cycle;Max_cycle;Signal;HPM_P1;HPM_P2
2022/09/14 00:01:21;;;;;;;10.30;3.90;;;;;;;15.86;95.66;100778.03;5071344;28;20339;-66
2022/09/14 00:03:51;;;;;;;12.77;4.65;;;;;;;15.86;96.26;100771.66;5067240;28;20513;-64
2022/09/14 00:06:16;;;;;;;9.52;4.15;;;;;;;15.87;96.10;100768.63;5059491;28;20044;-64
2022/09/14 00:08:42;;;;;;;11.57;4.30;;;;;;;15.88;96.09;100770.31;5069941;28;20360;-64
2022/09/14 00:11:10;;;;;;;12.85;4.05;;;;;;;15.90;96.02;100767.25;5054794;28;20039;-64
2022/09/14 00:13:37;;;;;;;10.70;4.10;;;;;;;15.88;94.62;100770.31;5063482;28;20041;-64
2022/09/14 00:16:05;;;;;;;10.93;3.70;;;;;;;15.91;94.98;100766.97;5060910;28;20037;-64
2022/09/14 00:18:32;;;;;;;12.55;4.00;;;;;;;15.94;95.59;100769.22;5070864;28;20033;-64
2022/09/14 00:21:02;;;;;;;11.93;4.28;;;;;;;15.89;94.78;100763.66;5070094;28;20473;-65
2022/09/14 00:23:28;;;;;;;11.23;3.80;;;;;;;15.88;94.61;100758.41;5069792;28;20146;-64
2022/09/14 00:25:53;;;;;;;12.70;3.88;;;;;;;15.86;93.80;100761.41;5068257;28;20032;-64
2022/09/14 00:28:19;;;;;;;10.82;4.00;;;;;;;15.85;93.91;100754.22;5069269;28;20020;-65
2022/09/14 00:30:44;;;;;;;11.20;3.67;;;;;;;15.79;93.28;100752.53;5066811;28;20035;-65
2022/09/14 00:33:09;;;;;;;9.93;4.47;;;;;;;15.77;94.75;100749.19;5070284;28;20024;-64
2022/09/14 00:35:35;;;;;;;8.82;4.35;;;;;;;15.74;95.18;100749.72;5068880;28;20298;-65
2022/09/14 00:38:00;;;;;;;7.70;3.85;;;;;;;15.72;95.69;100754.69;5068917;28;20025;-65
2022/09/14 00:40:26;;;;;;;12.32;4.57;;;;;;;15.71;95.68;100742.78;5068391;28;20058;-64
2022/09/14 00:42:51;;;;;;;11.43;4.53;;;;;;;15.71;93.74;100744.69;5063896;28;20375;-65
2022/09/14 00:45:19;;;;;;;11.43;4.20;;;;;;;15.67;92.96;100736.13;5062187;28;20123;-64
2022/09/14 00:47:48;;;;;;;10.38;4.22;;;;;;;15.69;91.96;100727.53;5050383;28;20048;-64
2022/09/14 00:50:14;;;;;;;11.77;4.22;;;;;;;15.64;91.92;100722.78;5050916;28;20475;-64
2022/09/14 00:52:43;;;;;;;11.50;4.25;;;;;;;15.55;90.91;100716.88;5068307;28;20024;-64
2022/09/14 00:55:14;;;;;;;12.48;4.43;;;;;;;15.53;93.15;100719.09;5067728;28;20044;-64
2022/09/14 00:57:43;;;;;;;11.20;4.43;;;;;;;15.49;93.27;100720.72;5068716;28;20045;-64
2022/09/14 01:00:10;;;;;;;10.13;4.15;;;;;;;15.51;94.83;100714.91;5069637;28;20043;-65
2022/09/14 01:02:36;;;;;;;10.65;4.45;;;;;;;15.50;95.61;100708.56;5069831;28;20128;-64
2022/09/14 01:05:02;;;;;;;10.95;4.75;;;;;;;15.51;95.53;100704.72;5065871;28;20128;-64
2022/09/14 01:07:44;;;;;;;11.52;4.60;;;;;;;15.52;95.44;100700.00;5061430;28;20037;-64
2022/09/14 01:10:48;;;;;;;12.88;4.95;;;;;;;15.51;95.73;100698.31;5065594;28;20043;-64
2022/09/14 01:13:22;;;;;;;12.95;6.35;;;;;;;15.40;96.67;100700.19;5022026;28;20049;-64
2022/09/14 01:16:17;;;;;;;9.10;4.20;;;;;;;15.44;96.09;100698.56;5060990;28;20090;-64
2022/09/14 01:18:46;;;;;;;10.73;3.60;;;;;;;15.37;95.24;100689.66;5069393;28;20028;-64
2022/09/14 01:21:17;;;;;;;11.40;3.60;;;;;;;15.32;94.75;100693.22;5069843;28;20033;-63
2022/09/14 01:23:52;;;;;;;11.73;3.90;;;;;;;15.30;94.94;100689.03;5061637;28;20035;-65
2022/09/14 01:26:54;;;;;;;11.02;3.92;;;;;;;15.31;94.58;100682.44;5068131;28;20037;-64
2022/09/14 01:29:29;;;;;;;10.63;3.88;;;;;;;15.26;96.34;100685.16;5069380;28;20043;-64
2022/09/14 01:32:05;;;;;;;12.05;3.47;;;;;;;15.17;94.73;100676.50;5068494;28;21075;-64
2022/09/14 01:34:47;;;;;;;10.13;3.80;;;;;;;15.29;94.55;100671.59;5064911;28;20356;-64
2022/09/14 01:37:23;;;;;;;13.18;4.10;;;;;;;15.03;95.55;100678.88;5049755;28;20033;-64
2022/09/14 01:39:53;;;;;;;10.25;3.63;;;;;;;14.94;96.58;100682.41;5050467;28;20036;-66
2022/09/14 01:42:22;;;;;;;12.23;4.05;;;;;;;14.89;96.98;100676.84;5052934;28;20044;-66
2022/09/14 01:44:52;;;;;;;12.85;3.85;;;;;;;14.89;98.00;100694.25;5067306;28;20069;-64
2022/09/14 01:47:45;;;;;;;10.80;3.88;;;;;;;14.96;98.35;100686.59;5057824;28;20090;-64
2022/09/14 01:50:20;;;;;;;15.00;4.18;;;;;;;14.94;98.73;100687.94;5059735;28;20040;-65
2022/09/14 01:52:52;;;;;;;9.45;4.20;;;;;;;14.87;98.73;100685.41;5067335;28;20049;-64
2022/09/14 01:55:32;;;;;;;9.18;4.03;;;;;;;15.00;98.00;100682.19;5057682;28;20082;-64
2022/09/14 01:58:03;;;;;;;11.18;3.60;;;;;;;14.92;96.80;100673.56;5055692;28;20483;-64
2022/09/14 02:00:30;;;;;;;12.93;4.10;;;;;;;14.87;96.65;100670.75;5068838;28;20078;-64
2022/09/14 02:03:01;;;;;;;11.68;4.65;;;;;;;14.85;96.63;100667.38;5061545;28;20033;-65
2022/09/14 02:05:36;;;;;;;13.45;4.18;;;;;;;14.85;97.17;100668.25;5060431;28;20135;-64
2022/09/14 02:08:02;;;;;;;12.63;4.20;;;;;;;14.85;97.93;100668.25;5069088;28;20382;-64
2022/09/14 02:10:28;;;;;;;10.18;4.30;;;;;;;14.82;98.26;100663.25;5068556;28;20031;-64
2022/09/14 02:12:54;;;;;;;9.38;4.07;;;;;;;14.79;97.16;100663.75;5064432;28;20530;-64
2022/09/14 02:15:21;;;;;;;13.93;4.35;;;;;;;14.77;98.18;100665.97;5052723;28;20056;-64
2022/09/14 02:17:47;;;;;;;11.10;4.50;;;;;;;14.81;99.14;100669.88;5049437;28;20025;-64
2022/09/14 02:20:20;;;;;;;10.30;3.95;;;;;;;14.78;98.47;100679.50;5057240;28;20387;-65
2022/09/14 02:22:45;;;;;;;12.13;4.38;;;;;;;14.79;99.36;100669.28;5068211;28;20505;-65
2022/09/14 02:25:11;;;;;;;10.40;4.60;;;;;;;14.79;98.91;100674.81;5068033;28;20079;-64
2022/09/14 02:27:36;;;;;;;9.93;4.40;;;;;;;14.81;99.52;100675.41;5067762;28;20098;-64
2022/09/14 02:30:03;;;;;;;14.57;4.78;;;;;;;14.76;99.06;100675.34;5067968;28;20366;-65
2022/09/14 02:32:41;;;;;;;10.82;4.53;;;;;;;14.77;99.96;100679.78;5064389;28;20074;-64
2022/09/14 02:35:34;;;;;;;13.10;5.20;;;;;;;14.77;99.86;100679.78;5048492;28;20028;-64
2022/09/14 02:38:09;;;;;;;13.15;5.15;;;;;;;14.75;100.00;100681.94;5054402;28;20028;-64
2022/09/14 02:40:40;;;;;;;11.55;5.63;;;;;;;14.75;99.29;100673.66;5049476;28;20044;-64
2022/09/14 02:43:20;;;;;;;11.88;5.03;;;;;;;14.74;98.91;100672.81;5058000;28;20066;-64
2022/09/14 02:46:11;;;;;;;11.75;4.57;;;;;;;14.79;100.00;100669.28;5049831;28;20037;-64
2022/09/14 02:48:42;;;;;;;13.32;4.95;;;;;;;14.78;100.00;100675.91;5049358;28;20116;-64
2022/09/14 02:51:13;;;;;;;14.02;5.40;;;;;;;14.83;100.00;100672.34;5062716;28;20127;-65
2022/09/14 02:53:43;;;;;;;13.27;5.20;;;;;;;14.78;100.00;100670.38;5068079;28;20479;-65
2022/09/14 02:56:10;;;;;;;14.15;5.15;;;;;;;14.79;100.00;100674.81;5067025;28;20249;-65
2022/09/14 02:58:41;;;;;;;9.98;5.05;;;;;;;14.79;100.00;100663.75;5067722;28;20033;-63
2022/09/14 03:01:10;;;;;;;14.23;5.22;;;;;;;14.78;100.00;100664.84;5068299;28;20090;-64
2022/09/14 03:03:36;;;;;;;11.48;4.82;;;;;;;14.73;100.00;100657.34;5056466;28;20492;-64
2022/09/14 03:06:02;;;;;;;15.15;5.10;;;;;;;14.69;100.00;100664.50;5065342;28;20085;-65
2022/09/14 03:08:27;;;;;;;15.15;5.35;;;;;;;14.69;100.00;100663.66;5067373;28;20036;-65
2022/09/14 03:10:53;;;;;;;15.45;5.03;;;;;;;14.65;100.00;100663.38;5066459;28;20031;-64
2022/09/14 03:13:19;;;;;;;11.35;4.60;;;;;;;14.60;100.00;100656.94;5067061;28;20352;-65
2022/09/14 03:15:45;;;;;;;12.05;4.60;;;;;;;14.57;100.00;100654.72;5068527;28;20058;-64
2022/09/14 03:18:11;;;;;;;9.90;4.75;;;;;;;14.54;100.00;100648.59;5068341;28;20082;-64
2022/09/14 03:20:36;;;;;;;10.63;4.57;;;;;;;14.51;99.89;100651.06;5065992;28;20032;-63
2022/09/14 03:23:02;;;;;;;10.77;3.95;;;;;;;14.47;98.77;100650.75;5047692;28;20029;-64
2022/09/14 03:25:28;;;;;;;12.82;4.18;;;;;;;14.41;98.92;100650.94;5060049;28;20409;-64
2022/09/14 03:27:56;;;;;;;14.57;4.50;;;;;;;14.43;97.75;100649.56;5067726;28;20037;-64
2022/09/14 03:30:21;;;;;;;12.88;4.65;;;;;;;14.26;98.91;100646.91;5068447;28;20035;-64
2022/09/14 03:32:48;;;;;;;12.35;4.82;;;;;;;14.23;100.00;100638.31;5066128;28;20024;-63
2022/09/14 03:35:14;;;;;;;15.13;5.00;;;;;;;14.20;100.00;100627.78;5068276;28;20031;-64
2022/09/14 03:37:41;;;;;;;11.98;4.50;;;;;;;14.14;100.00;100629.69;5065502;28;20036;-65
2022/09/14 03:40:07;;;;;;;11.93;4.15;;;;;;;14.15;100.00;100636.03;5066895;28;20035;-63
2022/09/14 03:42:33;;;;;;;15.57;4.90;;;;;;;14.11;100.00;100629.34;5052217;28;20031;-64
2022/09/14 03:44:58;;;;;;;13.13;4.25;;;;;;;14.15;100.00;100624.97;5066316;28;20455;-63
2022/09/14 03:47:24;;;;;;;10.40;4.45;;;;;;;14.12;100.00;100617.19;5068322;28;20463;-64
2022/09/14 03:49:49;;;;;;;10.43;4.13;;;;;;;14.06;100.00;100612.72;5066987;28;20028;-64
2022/09/14 03:52:15;;;;;;;13.70;4.53;;;;;;;14.01;100.00;100608.81;5068122;28;20036;-65
2022/09/14 03:54:41;;;;;;;9.18;3.88;;;;;;;14.02;100.00;100617.91;5062974;28;20025;-63
2022/09/14 03:57:06;;;;;;;13.27;4.20;;;;;;;14.03;100.00;100609.38;5068515;28;20029;-64
2022/09/14 03:59:32;;;;;;;16.75;3.88;;;;;;;14.07;100.00;100612.47;5070522;28;20060;-65
2022/09/14 04:01:57;;;;;;;14.45;4.90;;;;;;;14.06;100.00;100608.03;5070580;28;20037;-64
2022/09/14 04:04:23;;;;;;;11.00;3.60;;;;;;;14.05;100.00;100605.53;5055203;28;20052;-64
2022/09/14 04:06:48;;;;;;;14.38;3.60;;;;;;;14.07;100.00;100612.47;5071310;28;20021;-66
2022/09/14 04:09:13;;;;;;;14.13;4.18;;;;;;;14.10;100.00;100605.59;5071397;28;20029;-64
2022/09/14 04:11:38;;;;;;;10.68;4.22;;;;;;;14.09;100.00;100603.91;5070420;28;20486;-64
2022/09/14 04:14:04;;;;;;;12.63;3.75;;;;;;;14.09;100.00;100592.84;5067003;28;20064;-64
2022/09/14 04:16:30;;;;;;;10.82;4.13;;;;;;;14.10;100.00;100595.38;5067220;28;20043;-64
2022/09/14 04:18:56;;;;;;;11.40;4.28;;;;;;;14.03;100.00;100601.09;5051398;28;20110;-64
2022/09/14 04:21:24;;;;;;;10.93;3.72;;;;;;;14.00;100.00;100593.34;5050862;28;20044;-64
2022/09/14 04:23:55;;;;;;;9.52;3.60;;;;;;;13.96;100.00;100589.41;5068257;28;20029;-64
2022/09/14 04:26:22;;;;;;;10.73;3.85;;;;;;;13.94;100.00;100591.63;5059933;28;20029;-65
2022/09/14 04:28:48;;;;;;;11.43;4.07;;;;;;;13.95;100.00;100578.66;5063069;28;20082;-65
2022/09/14 04:31:13;;;;;;;13.30;4.10;;;;;;;13.95;100.00;100581.41;5055679;28;20032;-64
2022/09/14 04:33:41;;;;;;;11.57;4.00;;;;;;;13.95;100.00;100584.16;5065847;28;20029;-63
2022/09/14 04:36:10;;;;;;;10.80;3.90;;;;;;;14.01;100.00;100585.88;5068831;28;20071;-64
2022/09/14 04:38:37;;;;;;;11.15;3.38;;;;;;;14.00;100.00;100590.59;5071587;28;20086;-64
2022/09/14 04:41:08;;;;;;;12.98;4.53;;;;;;;14.00;100.00;100576.78;5069375;28;20075;-64
2022/09/14 04:43:34;;;;;;;10.88;3.80;;;;;;;14.02;100.00;100585.63;5056615;28;20103;-63
2022/09/14 04:46:01;;;;;;;8.80;3.72;;;;;;;14.00;100.00;100584.22;5052259;28;20136;-65
2022/09/14 04:48:32;;;;;;;10.37;3.80;;;;;;;14.02;100.00;100587.53;5050875;28;20056;-64
2022/09/14 04:51:03;;;;;;;11.45;4.30;;;;;;;14.02;100.00;100582.03;5067185;28;20274;-64
2022/09/14 04:53:29;;;;;;;12.35;4.22;;;;;;;14.03;100.00;100578.16;5069803;28;20024;-63
2022/09/14 04:56:05;;;;;;;11.02;4.30;;;;;;;14.02;100.00;100577.34;5064815;28;20032;-63
2022/09/14 04:58:32;;;;;;;14.05;4.57;;;;;;;14.01;100.00;100570.16;5057105;28;20461;-63
2022/09/14 05:01:07;;;;;;;11.10;3.97;;;;;;;13.96;100.00;100552.69;5050100;28;20065;-63
2022/09/14 05:03:32;;;;;;;14.93;5.20;;;;;;;13.94;100.00;100555.72;5064335;28;20107;-65
2022/09/14 05:06:06;;;;;;;11.82;4.68;;;;;;;13.94;100.00;100552.97;5069122;28;20079;-63
2022/09/14 05:08:34;;;;;;;10.18;4.15;;;;;;;13.94;100.00;100550.22;5059171;28;20083;-63
2022/09/14 05:11:00;;;;;;;14.65;4.90;;;;;;;13.97;100.00;100552.44;5049819;28;20032;-63
2022/09/14 05:13:25;;;;;;;10.80;4.32;;;;;;;14.00;100.00;100557.44;5049296;28;20021;-63
2022/09/14 05:15:51;;;;;;;13.07;4.72;;;;;;;14.01;100.00;100561.03;5049069;28;20459;-63
2022/09/14 05:18:17;;;;;;;13.75;4.63;;;;;;;14.04;100.00;100568.81;5068583;28;20024;-63
2022/09/14 05:20:42;;;;;;;11.90;5.53;;;;;;;14.07;100.00;100562.75;5064667;28;20044;-63
2022/09/14 05:23:07;;;;;;;12.27;4.57;;;;;;;14.07;100.00;100561.91;5058912;28;21074;-63
2022/09/14 05:25:32;;;;;;;11.45;3.90;;;;;;;14.08;100.00;100558.06;5068196;28;20039;-65
2022/09/14 05:27:58;;;;;;;13.10;4.53;;;;;;;14.07;100.00;100556.41;5066160;28;20090;-63
2022/09/14 05:30:23;;;;;;;16.25;5.22;;;;;;;14.06;100.00;100565.78;5069251;28;20028;-63
2022/09/14 05:32:48;;;;;;;13.30;4.72;;;;;;;14.08;100.00;100569.94;5065448;28;20024;-64
2022/09/14 05:35:14;;;;;;;12.00;4.60;;;;;;;14.09;100.00;100570.75;5069223;28;20403;-63
2022/09/14 05:37:39;;;;;;;16.35;5.07;;;;;;;14.08;100.00;100564.41;5065669;28;20056;-64
2022/09/14 05:40:05;;;;;;;15.43;4.93;;;;;;;14.07;100.00;100578.47;5055300;28;20055;-63
2022/09/14 05:42:31;;;;;;;10.90;5.22;;;;;;;14.13;100.00;100575.50;5049266;28;20036;-63
2022/09/14 05:44:56;;;;;;;11.23;5.00;;;;;;;14.15;100.00;100576.09;5066538;28;20089;-63
2022/09/14 05:47:21;;;;;;;12.98;5.68;;;;;;;14.19;100.00;100585.53;5053022;28;20025;-64
2022/09/14 05:49:46;;;;;;;14.05;5.50;;;;;;;14.15;100.00;100584.38;5062722;28;20025;-63
2022/09/14 05:52:12;;;;;;;12.90;5.20;;;;;;;14.16;100.00;100576.94;5053273;28;20381;-64
2022/09/14 05:54:37;;;;;;;12.00;4.88;;;;;;;14.15;100.00;100589.06;5058709;28;20044;-63
2022/09/14 05:57:02;;;;;;;11.45;5.82;;;;;;;14.14;100.00;100581.84;5046947;28;20029;-63
2022/09/14 05:59:30;;;;;;;18.38;5.68;;;;;;;14.14;100.00;100579.09;5048464;28;20368;-63
2022/09/14 06:01:56;;;;;;;15.48;5.78;;;;;;;14.17;100.00;100587.72;5055289;28;20051;-65
2022/09/14 06:04:21;;;;;;;11.45;5.70;;;;;;;14.14;100.00;100584.63;5060356;28;20053;-64
2022/09/14 06:06:47;;;;;;;11.75;6.20;;;;;;;14.12;100.00;100587.66;5063372;28;20028;-63
2022/09/14 06:09:12;;;;;;;11.68;5.50;;;;;;;14.12;100.00;100582.13;5068350;28;20036;-63
2022/09/14 06:11:37;;;;;;;14.45;6.28;;;;;;;14.12;100.00;100581.31;5058045;28;20064;-64
2022/09/14 06:14:04;;;;;;;15.55;7.25;;;;;;;14.10;100.00;100581.56;5052104;28;20040;-63
2022/09/14 06:16:29;;;;;;;15.60;7.30;;;;;;;14.09;100.00;100579.03;5055992;28;20028;-64
2022/09/14 06:18:56;;;;;;;13.45;6.78;;;;;;;14.11;100.00;100585.16;5052799;28;20419;-65
2022/09/14 06:21:22;;;;;;;16.30;6.63;;;;;;;14.15;100.00;100594.59;5051973;28;20082;-64
2022/09/14 06:23:48;;;;;;;13.98;7.53;;;;;;;14.21;100.00;100599.06;5051423;28;20029;-64
2022/09/14 06:26:14;;;;;;;14.05;6.72;;;;;;;14.23;100.00;100602.41;5049338;28;20038;-64
2022/09/14 06:28:40;;;;;;;16.92;7.70;;;;;;;14.24;100.00;100596.63;5054818;28;20036;-65
2022/09/14 06:31:08;;;;;;;14.75;7.00;;;;;;;14.23;100.00;100594.13;5058659;28;20020;-63
2022/09/14 06:33:34;;;;;;;14.63;6.93;;;;;;;14.27;100.00;100585.03;5053918;28;20028;-63
2022/09/14 06:36:08;;;;;;;17.38;7.13;;;;;;;14.30;100.00;100578.19;5067419;28;20040;-64
2022/09/14 06:38:34;;;;;;;15.73;7.60;;;;;;;14.34;100.00;100576.53;5067065;28;20021;-63
2022/09/14 06:41:01;;;;;;;14.73;7.25;;;;;;;14.35;100.00;100586.50;5065758;28;20115;-64
2022/09/14 06:43:30;;;;;;;18.38;7.72;;;;;;;14.37;100.00;100575.19;5068112;28;20032;-64
2022/09/14 06:45:56;;;;;;;14.85;7.78;;;;;;;14.42;100.00;100578.81;5058410;28;20363;-64
2022/09/14 06:48:21;;;;;;;16.70;8.07;;;;;;;14.42;100.00;100570.53;5051540;28;20463;-63
2022/09/14 06:50:46;;;;;;;16.85;8.48;;;;;;;14.45;100.00;100570.03;5060851;28;20052;-63
2022/09/14 06:53:12;;;;;;;16.67;8.38;;;;;;;14.43;100.00;100561.16;5061260;28;20418;-63
2022/09/14 06:55:37;;;;;;;13.95;7.45;;;;;;;14.43;100.00;100560.31;5048248;28;20041;-63
2022/09/14 06:58:02;;;;;;;17.58;8.38;;;;;;;14.41;100.00;100562.53;5050732;28;20048;-64
2022/09/14 07:00:28;;;;;;;17.08;8.63;;;;;;;14.45;100.00;100567.25;5058030;28;20040;-65
2022/09/14 07:02:53;;;;;;;17.70;9.02;;;;;;;14.44;100.00;100565.56;5060680;28;20064;-63
2022/09/14 07:05:21;;;;;;;17.23;8.57;;;;;;;14.44;100.00;100565.56;5058020;28;20060;-65
2022/09/14 07:07:50;;;;;;;19.37;9.07;;;;;;;14.45;100.00;100563.66;5054780;28;20047;-65
2022/09/14 07:10:15;;;;;;;15.55;7.82;;;;;;;14.43;100.00;100565.84;5065942;28;20298;-64
2022/09/14 07:12:40;;;;;;;18.25;8.65;;;;;;;14.41;100.00;100557.81;5055713;28;20029;-63
2022/09/14 07:15:06;;;;;;;26.52;8.95;;;;;;;14.41;100.00;100555.06;5063495;28;20351;-65
2022/09/14 07:17:31;;;;;;;17.38;9.75;;;;;;;14.39;100.00;100554.47;5052384;28;20028;-65
2022/09/14 07:19:57;;;;;;;19.20;9.73;;;;;;;14.36;100.00;100549.50;5061216;28;20382;-63
2022/09/14 07:22:22;;;;;;;20.60;9.93;;;;;;;14.39;100.00;100554.47;5053813;28;20036;-63
2022/09/14 07:24:47;;;;;;;16.48;9.10;;;;;;;14.41;100.00;100557.81;5058180;28;20157;-64
2022/09/14 07:27:12;;;;;;;17.30;9.05;;;;;;;14.36;100.00;100554.19;5053975;28;20301;-64
2022/09/14 07:29:38;;;;;;;17.52;9.63;;;;;;;14.31;100.00;100557.72;5055909;28;20024;-64
2022/09/14 07:32:04;;;;;;;15.65;9.35;;;;;;;14.28;100.00;100555.47;5069847;28;20044;-64
2022/09/14 07:34:29;;;;;;;18.70;9.60;;;;;;;14.31;100.00;100557.72;5063160;28;20155;-63
2022/09/14 07:36:54;;;;;;;20.60;9.52;;;;;;;14.24;100.00;100552.44;5060540;28;20367;-64
2022/09/14 07:39:19;;;;;;;17.02;8.68;;;;;;;14.28;100.00;100548.03;5064777;28;20036;-64
2022/09/14 07:41:45;;;;;;;15.18;7.82;;;;;;;14.26;100.00;100553.00;5070314;28;20032;-63
2022/09/14 07:44:14;;;;;;;17.95;9.13;;;;;;;14.18;100.00;100552.63;5055222;28;20017;-64
2022/09/14 07:46:41;;;;;;;20.52;9.50;;;;;;;14.19;100.00;100554.28;5058526;28;20044;-63
2022/09/14 07:49:08;;;;;;;18.85;10.27;;;;;;;14.21;100.00;100547.41;5063813;28;20036;-64
2022/09/14 07:51:35;;;;;;;18.38;8.20;;;;;;;14.23;100.00;100539.69;5056853;28;20021;-63
2022/09/14 07:54:01;;;;;;;18.20;8.15;;;;;;;14.28;100.00;100545.25;5071478;28;20032;-63
2022/09/14 07:56:27;;;;;;;17.33;7.90;;;;;;;14.31;100.00;100552.22;5069833;28;20036;-63
2022/09/14 07:58:55;;;;;;;18.30;8.57;;;;;;;14.32;100.00;100553.03;5072005;28;20425;-63
2022/09/14 08:01:21;;;;;;;16.45;8.63;;;;;;;14.26;100.00;100544.72;5062734;28;20043;-65
2022/09/14 08:03:47;;;;;;;12.73;8.30;;;;;;;14.28;100.00;100545.25;5071043;28;20467;-63
2022/09/14 08:06:18;;;;;;;20.30;8.73;;;;;;;14.32;100.00;100547.50;5053654;28;20082;-64
2022/09/14 08:08:46;;;;;;;19.25;9.25;;;;;;;14.31;100.00;100541.16;5058027;28;20021;-64
2022/09/14 08:11:22;;;;;;;;;;;;;;;14.42;100.00;100542.06;5068898;28;20082;-64
2022/09/14 08:13:50;;;;;;;19.83;9.52;;;;;;;14.37;100.00;100545.63;5063245;28;19924;-63
2022/09/14 08:16:17;;;;;;;19.23;9.20;;;;;;;14.38;100.00;100549.22;5064929;28;20040;-63
2022/09/14 08:18:42;;;;;;;21.75;9.35;;;;;;;14.38;100.00;100550.06;5070512;28;20029;-64
2022/09/14 08:21:10;;;;;;;24.52;10.25;;;;;;;14.42;100.00;100548.44;5051752;28;20110;-64
2022/09/14 08:23:36;;;;;;;16.48;9.13;;;;;;;14.44;100.00;100539.88;5051518;28;20029;-65
2022/09/14 08:26:06;;;;;;;20.90;8.63;;;;;;;14.42;100.00;100545.66;5062047;28;20125;-64
2022/09/14 08:28:32;;;;;;;14.05;9.05;;;;;;;14.45;100.00;100550.69;5068700;28;20029;-63
2022/09/14 08:31:10;;;;;;;18.95;9.02;;;;;;;14.49;100.00;100539.94;5071037;28;20472;-63
2022/09/14 08:33:39;;;;;;;17.83;9.82;;;;;;;14.46;100.00;100541.28;5070420;28;20078;-63
2022/09/14 08:36:06;;;;;;;21.10;10.07;;;;;;;14.53;100.00;100538.31;5052596;28;20037;-63
2022/09/14 08:38:31;;;;;;;19.92;10.25;;;;;;;14.63;100.00;100549.44;5051211;28;20036;-64
2022/09/14 08:41:00;;;;;;;20.13;9.82;;;;;;;14.68;100.00;100548.66;5055701;28;20017;-63
2022/09/14 08:43:26;;;;;;;18.55;9.70;;;;;;;14.68;100.00;100545.91;5070438;28;20044;-63
2022/09/14 08:46:00;;;;;;;19.38;9.85;;;;;;;14.72;100.00;100549.81;5068875;28;20537;-63
2022/09/14 08:48:32;;;;;;;24.08;10.10;;;;;;;14.74;100.00;100544.84;5071186;28;20023;-63
2022/09/14 08:50:57;;;;;;;22.52;10.88;;;;;;;14.70;100.00;100550.06;5070668;28;20058;-64
2022/09/14 08:53:24;;;;;;;23.02;11.13;;;;;;;14.69;100.00;100553.09;5071137;28;20486;-63
2022/09/14 08:56:05;;;;;;;21.95;11.30;;;;;;;14.69;100.00;100553.91;5066953;28;20063;-64
2022/09/14 08:58:30;;;;;;;24.85;11.23;;;;;;;14.69;100.00;100547.56;5067582;28;20055;-63
2022/09/14 09:01:11;;;;;;;22.50;11.17;;;;;;;14.70;100.00;100539.03;5057989;28;20436;-65
2022/09/14 09:04:11;;;;;;;21.30;10.90;;;;;;;14.85;100.00;100548.50;5059376;28;20076;-63
2022/09/14 09:06:45;;;;;;;26.83;12.57;;;;;;;14.67;100.00;100558.88;5039202;28;20095;-63
2022/09/14 09:09:26;;;;;;;19.73;10.25;;;;;;;14.72;100.00;100558.09;5051888;28;20456;-63
2022/09/14 09:11:54;;;;;;;22.05;11.38;;;;;;;14.73;100.00;100559.75;5050048;28;20052;-64
2022/09/14 09:14:30;;;;;;;20.77;11.13;;;;;;;14.75;100.00;100558.41;5065536;28;20035;-63
2022/09/14 09:16:58;;;;;;;23.48;12.32;;;;;;;14.77;100.00;100558.13;5058529;28;20478;-64
2022/09/14 09:19:31;;;;;;;22.25;12.27;;;;;;;14.78;100.00;100557.84;5070522;28;20037;-63
2022/09/14 09:21:58;;;;;;;28.05;11.38;;;;;;;14.80;100.00;100557.63;5070268;28;20052;-64
2022/09/14 09:24:39;;;;;;;27.10;12.70;;;;;;;14.83;100.00;100547.94;5068772;28;20036;-64
2022/09/14 09:27:09;;;;;;;21.42;11.90;;;;;;;14.79;100.00;100555.94;5069911;28;20037;-63
2022/09/14 09:29:35;;;;;;;22.20;12.07;;;;;;;14.80;100.00;100546.56;5064172;28;20021;-63
2022/09/14 09:32:03;;;;;;;24.08;12.32;;;;;;;14.76;100.00;100551.78;5049552;28;20112;-63
2022/09/14 09:34:29;;;;;;;27.67;12.90;;;;;;;14.76;100.00;100546.25;5066180;28;20040;-64
2022/09/14 09:36:55;;;;;;;25.08;12.00;;;;;;;14.77;100.00;100544.31;5069607;28;20028;-63
2022/09/14 09:39:22;;;;;;;21.70;12.13;;;;;;;14.77;100.00;100555.38;5069166;28;20115;-64
2022/09/14 09:42:24;;;;;;;21.97;11.90;;;;;;;14.78;100.00;100554.25;5065279;28;20031;-64
2022/09/14 09:44:55;;;;;;;24.98;12.43;;;;;;;14.70;100.00;100555.59;5069650;28;20275;-64
2022/09/14 09:47:37;;;;;;;27.40;12.35;;;;;;;14.73;100.00;100549.53;5070050;28;20032;-64
2022/09/14 09:50:23;;;;;;;24.35;12.77;;;;;;;14.82;100.00;100549.03;5061027;28;20082;-65
2022/09/14 09:52:58;;;;;;;28.90;11.93;;;;;;;14.82;100.00;100544.34;5058147;28;20166;-66
2022/09/14 09:55:27;;;;;;;26.63;12.13;;;;;;;14.68;100.00;100552.25;5063247;28;20044;-64
2022/09/14 09:57:53;;;;;;;24.92;12.10;;;;;;;14.66;100.00;100546.16;5047594;28;20050;-63
2022/09/14 10:00:22;;;;;;;24.88;11.50;;;;;;;14.76;100.00;100542.66;5052927;28;20036;-65
2022/09/14 10:02:48;;;;;;;23.52;11.40;;;;;;;14.77;100.00;100533.25;5068985;28;20028;-65
2022/09/14 10:05:21;;;;;;;24.55;12.57;;;;;;;14.73;100.00;100526.59;5069184;28;20033;-64
2022/09/14 10:07:55;;;;;;;25.30;13.05;;;;;;;14.80;100.00;100538.25;5067315;28;20037;-64
2022/09/14 10:10:37;;;;;;;24.75;12.85;;;;;;;14.90;100.00;100529.16;5068804;28;20028;-63
2022/09/14 10:13:04;;;;;;;24.35;11.82;;;;;;;14.93;100.00;100535.00;5068026;28;20037;-64
2022/09/14 10:15:32;;;;;;;27.10;13.02;;;;;;;15.00;100.00;100534.75;5062421;28;20029;-64
2022/09/14 10:18:06;;;;;;;23.27;12.93;;;;;;;15.05;100.00;100537.56;5049489;28;20017;-64
2022/09/14 10:20:32;;;;;;;25.67;12.35;;;;;;;15.08;100.00;100537.03;5053439;28;20032;-64
2022/09/14 10:23:15;;;;;;;27.38;11.95;;;;;;;15.20;100.00;100534.03;5066419;28;20029;-64
2022/09/14 10:25:40;;;;;;;30.75;13.25;;;;;;;15.27;100.00;100529.13;5068198;28;20036;-64
2022/09/14 10:28:20;;;;;;;28.50;13.40;;;;;;;15.37;100.00;100531.09;5068414;28;20478;-64
2022/09/14 10:30:51;;;;;;;26.80;12.95;;;;;;;15.38;100.00;100528.06;5068838;28;20028;-64
2022/09/14 10:33:17;;;;;;;30.15;12.98;;;;;;;15.50;100.00;100531.41;5065941;28;20033;-64
2022/09/14 10:35:48;;;;;;;26.33;13.00;;;;;;;15.52;100.00;100531.16;5065677;28;20032;-64
2022/09/14 10:38:30;;;;;;;28.00;13.95;;;;;;;15.54;100.00;100538.06;5066905;28;20109;-63
2022/09/14 10:41:15;;;;;;;26.85;13.13;;;;;;;15.57;100.00;100534.78;5066945;28;20398;-64
2022/09/14 10:44:18;;;;;;;33.38;14.07;;;;;;;15.61;100.00;100545.28;5067860;28;20052;-63
2022/09/14 10:47:04;;;;;;;29.10;13.57;;;;;;;15.57;100.00;100537.53;5068806;28;20032;-64
2022/09/14 10:50:06;;;;;;;24.88;13.85;;;;;;;15.63;100.00;100534.78;5058971;28;20540;-65
2022/09/14 10:52:55;;;;;;;26.65;12.40;;;;;;;15.56;98.54;100529.50;5068690;28;20063;-65
2022/09/14 10:55:49;;;;;;;23.77;12.25;;;;;;;15.47;100.00;100531.97;5067308;28;20036;-63
2022/09/14 10:58:40;;;;;;;28.02;13.25;;;;;;;15.44;100.00;100532.50;5068704;28;20028;-63
2022/09/14 11:01:19;;;;;;;26.30;12.90;;;;;;;15.33;100.00;100530.78;5063016;28;20044;-64
2022/09/14 11:04:13;;;;;;;24.55;13.60;;;;;;;15.35;100.00;100534.13;5066862;28;20028;-64
2022/09/14 11:06:50;;;;;;;28.58;13.05;;;;;;;15.20;100.00;100525.75;5070833;28;20371;-63
2022/09/14 11:09:33;;;;;;;26.77;13.18;;;;;;;15.16;100.00;100517.16;5072231;28;20032;-63
2022/09/14 11:12:25;;;;;;;24.63;13.82;;;;;;;15.19;100.00;100530.44;5071469;28;20032;-64
2022/09/14 11:15:14;;;;;;;26.00;13.05;;;;;;;15.17;100.00;100527.13;5070365;28;20032;-63
2022/09/14 11:17:50;;;;;;;26.65;12.10;;;;;;;15.05;100.00;100523.72;5070642;28;20052;-63
2022/09/14 11:20:25;;;;;;;25.92;11.52;;;;;;;15.01;100.00;100525.38;5069402;28;20033;-64
2022/09/14 11:23:15;;;;;;;26.20;12.32;;;;;;;15.01;100.00;100534.53;5070311;28;20033;-64